createdAt,value
2023-01-01T00:01:26.217Z,81.60
2023-01-01T00:03:57.739Z,80.50
2023-01-01T00:06:25.202Z,80.70
2023-01-01T00:09:14.920Z,80.60
2023-01-01T00:11:41.871Z,78.80
2023-01-01T00:14:12.225Z,78.70
2023-01-01T00:16:39.824Z,80.10
2023-01-01T00:19:07.094Z,80.70
2023-01-01T00:21:35.245Z,79.40
2023-01-01T00:24:02.255Z,79.30
2023-01-01T00:26:34.487Z,80.00
2023-01-01T00:29:02.502Z,78.70
2023-01-01T00:31:29.374Z,79.60
2023-01-01T00:33:56.704Z,79.10
2023-01-01T00:36:25.909Z,79.30
2023-01-01T00:38:53.318Z,78.50
2023-01-01T00:41:20.595Z,78.90
2023-01-01T00:43:47.647Z,77.10
2023-01-01T00:46:15.179Z,80.20
2023-01-01T00:48:42.248Z,79.50
2023-01-01T00:51:09.304Z,79.60
2023-01-01T00:53:39.177Z,78.60
2023-01-01T00:56:06.086Z,79.20
2023-01-01T00:58:33.476Z,78.30
2023-01-01T01:01:00.607Z,78.50
2023-01-01T01:03:30.827Z,78.20
2023-01-01T01:06:10.308Z,77.70
2023-01-01T01:08:39.498Z,79.40
2023-01-01T01:11:09.049Z,78.00
2023-01-01T01:13:36.230Z,79.00
2023-01-01T01:16:12.548Z,77.30
2023-01-01T01:18:39.544Z,76.80
2023-01-01T01:21:06.206Z,76.20
2023-01-01T01:23:33.501Z,76.80
2023-01-01T01:26:18.940Z,78.00
2023-01-01T01:28:49.819Z,76.20
2023-01-01T01:31:18.404Z,77.50
2023-01-01T01:33:46.602Z,76.10
2023-01-01T01:36:15.443Z,78.10
2023-01-01T01:38:42.607Z,77.70
2023-01-01T01:41:25.680Z,79.00
2023-01-01T01:44:03.728Z,79.50
2023-01-01T01:46:41.765Z,77.90
2023-01-01T01:49:18.423Z,79.00
2023-01-01T01:51:46.265Z,79.20
2023-01-01T01:54:22.658Z,74.60
2023-01-01T01:57:08.028Z,77.30
2023-01-01T01:59:41.074Z,76.10
2023-01-01T02:02:14.775Z,77.50
2023-01-01T02:04:42.905Z,79.20
2023-01-01T02:07:09.849Z,77.70
2023-01-01T02:09:37.183Z,76.60
2023-01-01T02:12:03.976Z,78.50
2023-01-01T02:14:30.668Z,77.40
2023-01-01T02:17:07.518Z,77.30
2023-01-01T02:19:58.505Z,77.30
2023-01-01T02:22:37.989Z,78.50
2023-01-01T02:25:32.192Z,76.30
2023-01-01T02:28:16.000Z,77.60
2023-01-01T02:30:45.698Z,77.20
2023-01-01T02:33:17.168Z,78.20
2023-01-01T02:36:02.023Z,76.10
2023-01-01T02:38:43.020Z,78.40
2023-01-01T02:41:12.274Z,79.50
2023-01-01T02:43:40.392Z,79.50
2023-01-01T02:46:09.106Z,80.50
2023-01-01T02:48:42.238Z,79.10
2023-01-01T02:51:27.317Z,78.00
2023-01-01T02:54:08.760Z,77.80
2023-01-01T02:56:56.262Z,79.00
2023-01-01T02:59:47.395Z,79.70
2023-01-01T03:02:16.894Z,78.60
2023-01-01T03:05:07.676Z,78.50
2023-01-01T03:07:52.907Z,80.00
2023-01-01T03:10:42.337Z,78.90
2023-01-01T03:13:21.860Z,79.10
2023-01-01T03:16:00.554Z,79.30
2023-01-01T03:18:37.274Z,77.70
2023-01-01T03:21:07.071Z,78.80
2023-01-01T03:23:37.293Z,79.40
2023-01-01T03:26:09.502Z,78.50
2023-01-01T03:28:42.329Z,77.80
2023-01-01T03:31:09.840Z,78.80
2023-01-01T03:33:45.193Z,77.50
2023-01-01T03:36:30.665Z,79.70
2023-01-01T03:39:09.667Z,78.30
2023-01-01T03:41:58.121Z,79.50
2023-01-01T03:44:45.512Z,77.90
2023-01-01T03:47:12.567Z,78.30
2023-01-01T03:49:39.536Z,77.80
2023-01-01T03:52:21.882Z,76.70
2023-01-01T03:55:19.488Z,77.10
2023-01-01T03:58:16.797Z,78.30
2023-01-01T04:00:57.824Z,77.30
2023-01-01T04:03:27.431Z,78.10
2023-01-01T04:05:54.572Z,78.00
2023-01-01T04:08:21.809Z,77.50
2023-01-01T04:10:56.601Z,78.40
2023-01-01T04:13:23.860Z,77.80
2023-01-01T04:15:50.929Z,77.90
2023-01-01T04:18:17.691Z,78.50
2023-01-01T04:20:44.360Z,78.30
2023-01-01T04:23:10.975Z,78.40
2023-01-01T04:25:37.614Z,79.00
2023-01-01T04:28:04.498Z,79.50
2023-01-01T04:30:31.167Z,79.50
2023-01-01T04:32:57.963Z,79.20
2023-01-01T04:35:24.664Z,79.40
2023-01-01T04:37:51.284Z,79.20
2023-01-01T04:40:18.154Z,78.40
2023-01-01T04:42:44.824Z,80.10
2023-01-01T04:45:14.843Z,78.60
2023-01-01T04:47:41.677Z,79.30
2023-01-01T04:50:08.664Z,78.40
2023-01-01T04:52:35.364Z,78.10
2023-01-01T04:55:02.005Z,78.70
2023-01-01T04:57:31.695Z,78.30
2023-01-01T04:59:58.404Z,78.60
2023-01-01T05:02:25.754Z,79.00
2023-01-01T05:04:52.493Z,77.50
2023-01-01T05:07:19.117Z,80.00
2023-01-01T05:09:45.762Z,78.80
2023-01-01T05:12:12.379Z,79.10
2023-01-01T05:14:39.045Z,78.90
2023-01-01T05:17:05.673Z,78.40
2023-01-01T05:19:32.379Z,78.50
2023-01-01T05:21:59.101Z,78.70
2023-01-01T05:24:25.839Z,78.90
2023-01-01T05:26:53.182Z,79.40
2023-01-01T05:29:19.919Z,80.10
2023-01-01T05:31:46.705Z,79.70
2023-01-01T05:34:13.615Z,80.00
2023-01-01T05:36:40.357Z,78.50
2023-01-01T05:39:12.102Z,78.70
2023-01-01T05:41:39.891Z,79.60
2023-01-01T05:44:07.260Z,81.30
2023-01-01T05:46:34.263Z,80.10
2023-01-01T05:49:01.084Z,80.00
2023-01-01T05:51:29.418Z,79.90
2023-01-01T05:53:57.212Z,80.40
2023-01-01T05:56:25.750Z,79.90
2023-01-01T05:58:52.442Z,79.40
2023-01-01T06:01:22.435Z,79.60
2023-01-01T06:03:50.205Z,80.10
2023-01-01T06:06:22.289Z,80.80
2023-01-01T06:08:53.541Z,79.80
2023-01-01T06:11:20.668Z,79.80
2023-01-01T06:13:47.566Z,80.50
2023-01-01T06:16:14.772Z,79.20
2023-01-01T06:18:41.511Z,80.20
2023-01-01T06:21:13.996Z,80.80
2023-01-01T06:23:40.967Z,80.70
2023-01-01T06:26:13.489Z,81.20
2023-01-01T06:28:41.225Z,81.30
2023-01-01T06:31:11.647Z,80.80
2023-01-01T06:33:39.289Z,80.70
2023-01-01T06:36:08.705Z,80.40
2023-01-01T06:38:37.824Z,80.00
2023-01-01T06:41:10.817Z,80.70
2023-01-01T06:43:38.243Z,80.00
2023-01-01T06:46:17.488Z,79.80
2023-01-01T06:48:45.493Z,79.90
2023-01-01T06:51:15.788Z,80.80
2023-01-01T06:53:42.939Z,80.70
2023-01-01T06:56:10.058Z,80.30
2023-01-01T06:58:36.921Z,79.40
2023-01-01T07:01:09.432Z,79.50
2023-01-01T07:03:37.307Z,79.90
2023-01-01T07:06:04.845Z,80.50
2023-01-01T07:08:31.469Z,80.50
2023-01-01T07:10:58.225Z,79.80
2023-01-01T07:13:25.924Z,79.80
2023-01-01T07:15:53.156Z,80.40
2023-01-01T07:18:21.054Z,80.60
2023-01-01T07:20:56.711Z,80.70
2023-01-01T07:23:24.124Z,79.90
2023-01-01T07:25:52.314Z,80.00
2023-01-01T07:28:19.474Z,79.80
2023-01-01T07:30:46.238Z,80.60
2023-01-01T07:33:15.137Z,79.40
2023-01-01T07:35:42.038Z,79.80
2023-01-01T07:38:08.976Z,80.00
2023-01-01T07:40:35.603Z,80.70
2023-01-01T07:43:02.948Z,80.50
2023-01-01T07:45:29.835Z,80.10
2023-01-01T07:47:57.878Z,80.70
2023-01-01T07:50:26.295Z,80.20
2023-01-01T07:52:52.962Z,79.90
2023-01-01T07:55:20.845Z,80.20
2023-01-01T07:57:48.393Z,80.40
2023-01-01T08:00:17.850Z,81.20
2023-01-01T08:02:45.061Z,80.40
2023-01-01T08:05:11.946Z,80.40
2023-01-01T08:07:39.336Z,80.20
2023-01-01T08:10:07.339Z,80.80
2023-01-01T08:12:34.124Z,80.20
2023-01-01T08:15:00.766Z,80.40
2023-01-01T08:17:27.397Z,80.20
2023-01-01T08:19:54.135Z,80.40
2023-01-01T08:22:20.847Z,80.00
2023-01-01T08:24:47.949Z,80.20
2023-01-01T08:27:15.826Z,81.20
2023-01-01T08:29:45.869Z,80.50
2023-01-01T08:32:12.860Z,80.50
2023-01-01T08:34:39.499Z,80.60
2023-01-01T08:37:07.168Z,80.70
2023-01-01T08:39:33.895Z,80.70
2023-01-01T08:42:00.479Z,81.10
2023-01-01T08:44:27.078Z,81.40
2023-01-01T08:46:53.903Z,81.30
2023-01-01T08:49:20.550Z,81.10
2023-01-01T08:51:47.182Z,81.00
2023-01-01T08:54:13.863Z,81.10
2023-01-01T08:56:40.465Z,80.70
2023-01-01T08:59:07.204Z,81.30
2023-01-01T09:01:33.973Z,81.70
2023-01-01T09:04:00.665Z,81.80
2023-01-01T09:06:27.308Z,81.50
2023-01-01T09:08:54.023Z,81.50
2023-01-01T09:11:28.319Z,81.50
2023-01-01T09:13:55.428Z,81.50
2023-01-01T09:16:23.070Z,81.60
2023-01-01T09:18:50.179Z,81.20
2023-01-01T09:21:17.105Z,81.20
2023-01-01T09:23:43.767Z,81.10
2023-01-01T09:26:10.924Z,81.60
2023-01-01T09:28:38.429Z,81.60
2023-01-01T09:31:08.861Z,81.30
2023-01-01T09:33:35.669Z,81.30
2023-01-01T09:36:25.816Z,81.60
2023-01-01T09:38:53.920Z,81.90
2023-01-01T09:41:50.693Z,81.80
2023-01-01T09:44:32.155Z,81.60
2023-01-01T09:47:02.340Z,82.00
2023-01-01T09:49:41.566Z,81.80
2023-01-01T09:52:13.668Z,82.00
2023-01-01T09:54:47.672Z,81.90
2023-01-01T09:57:19.830Z,81.90
2023-01-01T09:59:47.044Z,81.90
2023-01-01T10:02:32.213Z,82.20
2023-01-01T10:05:34.248Z,81.50
2023-01-01T10:08:30.871Z,81.80
2023-01-01T10:11:15.509Z,82.10
2023-01-01T10:13:46.170Z,81.70
2023-01-01T10:16:13.206Z,81.50
2023-01-01T10:18:41.838Z,81.30
2023-01-01T10:21:17.925Z,82.00
2023-01-01T10:23:52.171Z,81.60
2023-01-01T10:26:23.609Z,81.20
2023-01-01T10:29:19.184Z,80.70
2023-01-01T10:31:47.326Z,80.90
2023-01-01T10:34:22.394Z,81.20
2023-01-01T10:36:54.357Z,81.10
2023-01-01T10:39:21.120Z,81.10
2023-01-01T10:41:48.113Z,81.30
2023-01-01T10:44:26.093Z,81.10
2023-01-01T10:46:57.664Z,82.00
2023-01-01T10:49:24.470Z,81.50
2023-01-01T10:51:53.708Z,81.70
2023-01-01T10:54:33.144Z,82.30
2023-01-01T10:57:20.801Z,80.70
2023-01-01T10:59:53.940Z,81.30
2023-01-01T11:02:22.622Z,81.00
2023-01-01T11:04:51.286Z,82.00
2023-01-01T11:07:30.337Z,81.10
2023-01-01T11:10:04.003Z,81.30
2023-01-01T11:15:42.518Z,82.60
2023-01-01T11:18:20.678Z,82.00
2023-01-01T11:20:58.697Z,81.80
2023-01-01T11:23:36.329Z,81.70
2023-01-01T11:26:07.272Z,81.30
2023-01-01T11:28:35.620Z,81.10
2023-01-01T11:31:10.985Z,81.10
2023-01-01T11:33:45.808Z,82.00
2023-01-01T11:36:20.300Z,80.90
2023-01-01T11:39:04.197Z,80.90
2023-01-01T11:41:48.030Z,80.80
2023-01-01T11:44:35.936Z,80.60
2023-01-01T11:47:04.257Z,80.30
2023-01-01T11:49:31.409Z,81.00
2023-01-01T11:51:58.759Z,81.00
2023-01-01T11:54:33.008Z,80.70
2023-01-01T11:57:14.406Z,80.50
2023-01-01T11:59:49.301Z,79.70
2023-01-01T12:02:24.409Z,80.30
2023-01-01T12:05:00.903Z,80.70
2023-01-01T12:07:36.693Z,80.10
2023-01-01T12:10:25.487Z,80.20
2023-01-01T12:13:15.078Z,81.20
2023-01-01T12:15:55.718Z,81.20
2023-01-01T12:18:27.692Z,80.00
2023-01-01T12:21:14.563Z,80.10
2023-01-01T12:23:41.357Z,79.90
2023-01-01T12:26:37.661Z,79.90
2023-01-01T12:29:38.153Z,80.10
2023-01-01T12:32:33.112Z,79.60
2023-01-01T12:35:03.316Z,79.60
2023-01-01T12:38:00.555Z,80.00
2023-01-01T12:40:38.614Z,80.20
2023-01-01T12:43:49.430Z,79.80
2023-01-01T12:46:41.070Z,80.30
2023-01-01T12:49:43.641Z,80.10
2023-01-01T12:52:26.560Z,80.10
2023-01-01T12:55:03.754Z,79.80
2023-01-01T12:57:51.376Z,80.10
2023-01-01T13:00:21.216Z,80.10
2023-01-01T13:02:55.536Z,79.80
2023-01-01T13:05:35.132Z,80.00
2023-01-01T13:08:04.739Z,80.20
2023-01-01T13:10:35.592Z,80.20
2023-01-01T13:13:03.211Z,80.00
2023-01-01T13:15:39.487Z,80.20
2023-01-01T13:18:15.357Z,80.10
2023-01-01T13:20:46.763Z,80.10
2023-01-01T13:23:31.672Z,80.00
2023-01-01T13:26:22.963Z,79.60
2023-01-01T13:28:58.739Z,80.20
2023-01-01T13:31:40.927Z,79.80
2023-01-01T13:34:42.466Z,80.70
2023-01-01T13:37:14.811Z,80.60
2023-01-01T13:40:24.164Z,80.50
2023-01-01T13:42:59.159Z,80.30
2023-01-01T13:48:48.923Z,79.60
2023-01-01T13:52:07.041Z,79.60
2023-01-01T13:55:07.360Z,79.70
2023-01-01T13:57:59.791Z,79.80
2023-01-01T14:00:35.836Z,79.80
2023-01-01T14:03:16.563Z,79.70
2023-01-01T14:05:45.974Z,79.80
2023-01-01T14:08:33.033Z,79.80
2023-01-01T14:11:01.896Z,79.40
2023-01-01T14:13:30.289Z,79.80
2023-01-01T14:15:58.609Z,80.10
2023-01-01T14:18:42.037Z,80.10
2023-01-01T14:21:11.842Z,80.30
2023-01-01T14:23:49.844Z,80.20
2023-01-01T14:26:20.968Z,80.30
2023-01-01T14:28:48.099Z,80.40
2023-01-01T14:31:20.907Z,80.60
2023-01-01T14:33:47.898Z,80.80
2023-01-01T14:36:22.414Z,80.60
2023-01-01T14:38:52.598Z,80.90
2023-01-01T14:41:37.717Z,81.00
2023-01-01T14:44:16.662Z,80.70
2023-01-01T14:46:48.975Z,81.10
2023-01-01T14:49:32.481Z,80.80
2023-01-01T14:52:23.557Z,81.00
2023-01-01T14:54:51.224Z,80.90
2023-01-01T14:57:26.732Z,80.80
2023-01-01T14:59:54.638Z,80.90
2023-01-01T15:02:26.621Z,81.20
2023-01-01T15:04:53.388Z,81.10
2023-01-01T15:07:28.534Z,80.90
2023-01-01T15:10:03.139Z,81.20
2023-01-01T15:12:33.027Z,81.50
2023-01-01T15:14:59.797Z,81.20
2023-01-01T15:17:27.401Z,81.00
2023-01-01T15:20:03.793Z,81.30
2023-01-01T15:22:34.668Z,81.30
2023-01-01T15:25:05.118Z,81.40
2023-01-01T15:27:36.866Z,81.20
2023-01-01T15:30:11.636Z,81.00
2023-01-01T15:32:40.675Z,81.20
2023-01-01T15:35:31.449Z,81.40
2023-01-01T15:38:18.852Z,81.60
2023-01-01T15:40:51.091Z,81.90
2023-01-01T15:43:29.526Z,82.00
2023-01-01T15:46:23.341Z,82.20
2023-01-01T15:48:53.152Z,82.40
2023-01-01T15:51:23.762Z,82.70
2023-01-01T15:53:57.158Z,82.90
2023-01-01T15:56:27.085Z,83.10
2023-01-01T15:59:09.814Z,83.20
2023-01-01T16:01:39.762Z,83.30
2023-01-01T16:04:28.662Z,83.40
2023-01-01T16:06:57.861Z,83.80
2023-01-01T16:09:24.772Z,84.00
2023-01-01T16:11:56.950Z,84.30
2023-01-01T16:14:24.350Z,84.40
2023-01-01T16:16:58.417Z,85.10
2023-01-01T16:19:25.495Z,84.40
2023-01-01T16:21:52.267Z,84.50
2023-01-01T16:24:20.029Z,84.50
2023-01-01T16:26:47.486Z,84.70
2023-01-01T16:29:15.689Z,84.90
2023-01-01T16:31:43.074Z,84.80
2023-01-01T16:34:16.222Z,84.80
2023-01-01T16:36:44.273Z,85.10
2023-01-01T16:39:11.533Z,85.10
2023-01-01T16:41:42.075Z,85.40
2023-01-01T16:44:15.526Z,85.30
2023-01-01T16:46:42.721Z,85.50
2023-01-01T16:49:09.518Z,85.20
2023-01-01T16:51:40.627Z,85.30
2023-01-01T16:54:10.128Z,85.10
2023-01-01T16:56:36.801Z,85.00
2023-01-01T16:59:03.871Z,85.20
2023-01-01T17:01:31.077Z,85.40
2023-01-01T17:03:58.136Z,85.30
2023-01-01T17:06:24.796Z,85.30
2023-01-01T17:08:51.510Z,85.10
2023-01-01T17:11:18.936Z,85.10
2023-01-01T17:13:47.670Z,85.20
2023-01-01T17:16:21.378Z,85.10
2023-01-01T17:19:14.505Z,85.10
2023-01-01T17:21:39.892Z,85.10
2023-01-01T17:24:07.158Z,85.20
2023-01-01T17:26:33.882Z,85.60
2023-01-01T17:29:02.935Z,85.50
2023-01-01T17:31:30.120Z,85.40
2023-01-01T17:33:57.063Z,85.40
2023-01-01T17:36:24.410Z,85.50
2023-01-01T17:38:51.078Z,85.30
2023-01-01T17:41:18.197Z,85.20
2023-01-01T17:43:47.735Z,85.30
2023-01-01T17:46:15.955Z,86.00
2023-01-01T17:48:43.909Z,85.70
2023-01-01T17:51:12.047Z,85.80
2023-01-01T17:53:39.890Z,86.00
2023-01-01T17:56:07.684Z,85.90
2023-01-01T17:58:35.719Z,85.80
2023-01-01T18:01:23.870Z,85.80
2023-01-01T18:04:03.142Z,85.90
2023-01-01T18:06:31.674Z,86.20
2023-01-01T18:09:00.698Z,86.60
2023-01-01T18:11:29.093Z,86.90
2023-01-01T18:14:00.813Z,86.80
2023-01-01T18:16:28.423Z,86.50
2023-01-01T18:18:56.004Z,86.30
2023-01-01T18:21:23.779Z,86.60
2023-01-01T18:23:52.568Z,86.90
2023-01-01T18:26:19.892Z,86.80
2023-01-01T18:28:58.598Z,86.80
2023-01-01T18:31:27.361Z,86.80
2023-01-01T18:33:54.716Z,87.20
2023-01-01T18:36:24.574Z,86.40
2023-01-01T18:39:23.026Z,86.40
2023-01-01T18:42:00.832Z,86.80
2023-01-01T18:44:30.736Z,86.80
2023-01-01T18:47:06.366Z,86.90
2023-01-01T18:49:35.167Z,87.00
2023-01-01T18:52:01.788Z,86.90
2023-01-01T18:54:29.895Z,86.70
2023-01-01T18:57:22.317Z,86.70
2023-01-01T18:59:55.385Z,86.60
2023-01-01T19:02:39.231Z,86.60
2023-01-01T19:05:26.943Z,87.20
2023-01-01T19:08:09.805Z,87.70
2023-01-01T19:10:42.727Z,87.40
2023-01-01T19:13:18.893Z,88.00
2023-01-01T19:15:54.288Z,88.20
2023-01-01T19:18:28.224Z,87.90
2023-01-01T19:21:00.176Z,87.50
2023-01-01T19:23:26.769Z,87.70
2023-01-01T19:25:55.428Z,87.80
2023-01-01T19:28:27.797Z,87.70
2023-01-01T19:30:54.552Z,87.40
2023-01-01T19:33:21.188Z,88.00
2023-01-01T19:35:47.897Z,87.60
2023-01-01T19:38:14.569Z,87.60
2023-01-01T19:40:41.282Z,87.50
2023-01-01T19:43:08.032Z,87.40
2023-01-01T19:45:34.809Z,87.60
2023-01-01T19:48:06.925Z,88.20
2023-01-01T19:50:33.698Z,88.00
2023-01-01T19:53:00.524Z,88.50
2023-01-01T19:55:27.292Z,88.20
2023-01-01T19:57:54.153Z,88.40
2023-01-01T20:00:20.882Z,88.30
2023-01-01T20:02:48.340Z,88.70
2023-01-01T20:05:15.522Z,88.80
2023-01-01T20:07:42.356Z,88.80
2023-01-01T20:10:09.569Z,88.30
2023-01-01T20:12:36.261Z,88.30
2023-01-01T20:15:03.167Z,88.20
2023-01-01T20:17:30.742Z,88.60
2023-01-01T20:19:58.408Z,88.80
2023-01-01T20:22:25.376Z,89.00
2023-01-01T20:24:52.183Z,88.90
2023-01-01T20:27:19.037Z,89.50
2023-01-01T20:29:45.863Z,89.30
2023-01-01T20:32:13.300Z,88.90
2023-01-01T20:34:40.580Z,89.10
2023-01-01T20:37:26.434Z,89.00
2023-01-01T20:39:53.399Z,88.70
2023-01-01T20:42:20.483Z,89.10
2023-01-01T20:44:47.172Z,89.20
2023-01-01T20:47:14.499Z,89.50
2023-01-01T20:49:42.264Z,89.70
2023-01-01T20:52:09.632Z,89.30
2023-01-01T20:54:36.557Z,89.20
2023-01-01T20:57:03.443Z,89.00
2023-01-01T20:59:36.429Z,89.00
2023-01-01T21:02:06.081Z,89.20
2023-01-01T21:04:33.263Z,89.20
2023-01-01T21:06:59.953Z,89.20
2023-01-01T21:09:26.656Z,89.20
2023-01-01T21:11:53.341Z,89.40
2023-01-01T21:14:23.948Z,89.30
2023-01-01T21:16:51.754Z,89.50
2023-01-01T21:19:26.040Z,89.50
2023-01-01T21:21:55.353Z,89.80
2023-01-01T21:24:37.592Z,89.80
2023-01-01T21:27:23.923Z,89.90
2023-01-01T21:29:53.118Z,89.90
2023-01-01T21:32:26.800Z,89.80
2023-01-01T21:34:55.046Z,89.50
2023-01-01T21:37:47.243Z,89.80
2023-01-01T21:40:35.614Z,89.80
2023-01-01T21:43:02.965Z,89.60
2023-01-01T21:45:32.135Z,89.70
2023-01-01T21:48:16.410Z,90.00
2023-01-01T21:50:45.967Z,90.00
2023-01-01T21:53:24.129Z,90.20
2023-01-01T21:56:00.133Z,90.20
2023-01-01T21:58:51.508Z,90.40
2023-01-01T22:01:24.134Z,90.30
2023-01-01T22:04:09.473Z,90.20
2023-01-01T22:06:43.141Z,90.20
2023-01-01T22:09:16.431Z,90.20
2023-01-01T22:11:44.563Z,90.10
2023-01-01T22:14:16.126Z,90.10
2023-01-01T22:16:44.140Z,90.20
2023-01-01T22:19:19.234Z,90.20
2023-01-01T22:21:47.861Z,90.30
2023-01-01T22:24:26.648Z,90.40
2023-01-01T22:26:53.414Z,90.40
2023-01-01T22:29:24.807Z,90.30
2023-01-01T22:32:20.825Z,90.40
2023-01-01T22:34:48.524Z,90.70
2023-01-01T22:37:21.382Z,90.50
2023-01-01T22:39:49.046Z,90.80
2023-01-01T22:42:18.964Z,90.70
2023-01-01T22:44:58.133Z,90.80
2023-01-01T22:47:33.013Z,90.90
2023-01-01T22:50:03.446Z,90.60
2023-01-01T22:52:30.172Z,90.70
2023-01-01T22:55:01.577Z,90.80
2023-01-01T22:57:31.450Z,90.80
2023-01-01T22:59:58.095Z,90.80
2023-01-01T23:02:24.791Z,90.80
2023-01-01T23:04:51.718Z,90.80
2023-01-01T23:07:18.477Z,90.70
2023-01-01T23:09:45.522Z,90.70
2023-01-01T23:12:12.289Z,90.70
2023-01-01T23:15:00.588Z,90.60
2023-01-01T23:17:27.175Z,90.70
2023-01-01T23:20:05.987Z,90.60
2023-01-01T23:22:37.004Z,90.80
2023-01-01T23:25:09.568Z,90.80
2023-01-01T23:27:40.377Z,90.80
2023-01-01T23:30:08.187Z,90.80
2023-01-01T23:32:35.850Z,90.80
2023-01-01T23:35:03.291Z,90.80
2023-01-01T23:37:30.078Z,90.80
2023-01-01T23:39:56.737Z,90.70
2023-01-01T23:42:23.421Z,90.80
2023-01-01T23:44:50.070Z,90.80
2023-01-01T23:47:17.412Z,90.80
2023-01-01T23:49:44.242Z,90.80
2023-01-01T23:52:11.013Z,90.90
2023-01-01T23:54:38.969Z,90.80
2023-01-01T23:57:05.680Z,90.70
2023-01-01T23:59:32.356Z,90.70
